Time;durP1;ratioP1;P1;durP2;ratioP2;P2;SDS_P1;SDS_P2;PMS_P1;PMS_P2;Temp;Humidity;BMP_temperature;BMP_pressure;BME280_temperature;BME280_humidity;BME280_pressure;Samples;Min_cycle;Max_cycle;Signal;HPM_P1;HPM_P2
2023/03/10 00:00:04;;;;;;;3.03;1.20;;;;;;;11.44;76.62;98187.13;5024000;28;20710;-74
2023/03/10 00:02:33;;;;;;;2.33;0.97;;;;;;;11.46;76.91;98190.63;5024851;28;20187;-74
2023/03/10 00:05:01;;;;;;;1.67;1.10;;;;;;;11.44;76.83;98184.50;5025199;28;20202;-74
2023/03/10 00:07:27;;;;;;;2.83;1.00;;;;;;;11.47;76.79;98194.13;5020608;28;20231;-74
2023/03/10 00:09:54;;;;;;;1.57;1.17;;;;;;;11.44;77.28;98181.84;5024560;28;20221;-74
2023/03/10 00:12:21;;;;;;;2.60;0.97;;;;;;;11.46;77.75;98176.50;5022205;28;20199;-74
2023/03/10 00:14:48;;;;;;;1.77;1.00;;;;;;;11.44;77.45;98183.63;5024711;28;20206;-74
2023/03/10 00:17:14;;;;;;;1.23;0.90;;;;;;;11.39;77.71;98177.56;5020390;28;20620;-74
2023/03/10 00:19:41;;;;;;;1.77;0.90;;;;;;;11.40;78.09;98181.97;5022344;28;20223;-74
2023/03/10 00:22:07;;;;;;;2.10;0.80;;;;;;;11.40;77.89;98174.88;5019663;28;20574;-74
2023/03/10 00:24:33;;;;;;;3.47;1.10;;;;;;;11.37;78.63;98182.03;5023810;28;20295;-74
2023/03/10 00:27:00;;;;;;;1.40;1.00;;;;;;;11.38;78.60;98175.81;5024562;28;20205;-74
2023/03/10 00:29:26;;;;;;;1.60;1.00;;;;;;;11.34;79.19;98164.44;5023403;28;20208;-75
2023/03/10 00:31:53;;;;;;;2.40;1.00;;;;;;;11.30;79.11;98160.13;5025673;28;20199;-74
2023/03/10 00:34:19;;;;;;;0.80;0.70;;;;;;;11.26;79.54;98164.63;5023920;28;20202;-74
2023/03/10 00:36:45;;;;;;;0.97;0.87;;;;;;;11.24;79.79;98165.59;5023764;28;20265;-74
2023/03/10 00:39:12;;;;;;;1.50;0.90;;;;;;;11.21;80.20;98160.38;5023311;28;20219;-74
2023/03/10 00:41:38;;;;;;;1.37;0.90;;;;;;;11.17;80.32;98156.03;5023921;28;20223;-74
2023/03/10 00:44:08;;;;;;;2.53;1.40;;;;;;;11.13;80.53;98157.00;5023702;28;20262;-74
2023/03/10 00:46:37;;;;;;;1.17;0.83;;;;;;;11.11;80.58;98143.81;5024507;28;20227;-74
2023/03/10 00:49:07;;;;;;;1.00;0.90;;;;;;;11.09;81.09;98150.91;5024264;28;20457;-74
2023/03/10 00:51:34;;;;;;;2.77;0.90;;;;;;;11.05;81.32;98138.66;5020027;28;20229;-75
2023/03/10 00:54:01;;;;;;;1.40;0.90;;;;;;;11.10;81.43;98143.84;5021784;28;20200;-74
2023/03/10 00:56:29;;;;;;;2.43;0.93;;;;;;;11.05;81.49;98130.72;5022102;28;20295;-74
2023/03/10 00:58:58;;;;;;;1.77;0.90;;;;;;;11.04;81.43;98134.28;5022141;28;20539;-74
2023/03/10 01:01:26;;;;;;;2.67;0.90;;;;;;;11.04;81.57;98134.28;5022938;28;20216;-75
2023/03/10 01:03:54;;;;;;;1.67;0.90;;;;;;;11.00;81.69;98124.66;5022936;28;20567;-74
2023/03/10 01:06:21;;;;;;;2.73;0.97;;;;;;;11.02;82.14;98128.16;5023527;28;20221;-74
2023/03/10 01:08:47;;;;;;;2.93;0.97;;;;;;;10.97;81.98;98122.09;5021409;28;20285;-74
2023/03/10 01:11:19;;;;;;;2.13;0.93;;;;;;;11.01;81.97;98114.94;5021627;28;20217;-74
2023/03/10 01:13:46;;;;;;;1.40;1.17;;;;;;;10.95;81.94;98118.63;5020460;28;20232;-74
2023/03/10 01:16:13;;;;;;;3.33;1.17;;;;;;;10.94;81.82;98111.59;5021400;28;20233;-74
2023/03/10 01:18:42;;;;;;;1.80;1.20;;;;;;;10.97;81.97;98107.06;5021058;28;20200;-74
2023/03/10 01:21:15;;;;;;;2.43;0.93;;;;;;;10.97;81.62;98104.44;5023497;28;20264;-75
2023/03/10 01:23:41;;;;;;;3.33;1.10;;;;;;;10.95;81.79;98097.44;5024166;28;20269;-75
2023/03/10 01:26:08;;;;;;;1.47;0.93;;;;;;;11.01;81.60;98096.41;5017285;28;20670;-74
2023/03/10 01:28:34;;;;;;;2.23;0.90;;;;;;;10.97;82.06;98100.91;5024447;28;20192;-74
2023/03/10 01:31:01;;;;;;;2.50;1.00;;;;;;;10.91;82.00;98083.41;5024135;28;20223;-75
2023/03/10 01:33:27;;;;;;;1.30;0.93;;;;;;;10.92;82.37;98087.78;5022067;28;20218;-74
2023/03/10 01:35:53;;;;;;;1.33;1.00;;;;;;;10.92;82.45;98078.97;5023241;28;20249;-74
2023/03/10 01:38:20;;;;;;;3.10;1.37;;;;;;;10.88;82.51;98072.03;5023213;28;20191;-74
2023/03/10 01:40:48;;;;;;;2.60;0.90;;;;;;;11.01;82.48;98077.88;5024419;28;20308;-74
2023/03/10 01:43:17;;;;;;;0.80;0.70;;;;;;;11.01;82.56;98064.63;5020805;28;20204;-75
2023/03/10 01:45:44;;;;;;;1.57;1.17;;;;;;;10.98;82.65;98063.78;5021803;28;20234;-74
2023/03/10 01:48:15;;;;;;;1.13;0.70;;;;;;;10.98;82.62;98061.16;5025298;28;20242;-74
2023/03/10 01:50:44;;;;;;;2.30;0.80;;;;;;;10.97;82.67;98054.13;5026951;28;20216;-75
2023/03/10 01:53:14;;;;;;;2.63;0.93;;;;;;;10.96;83.19;98052.38;5025090;28;20211;-74
2023/03/10 01:55:47;;;;;;;1.27;0.80;;;;;;;10.94;83.04;98048.03;5026507;28;20609;-73
2023/03/10 01:58:15;;;;;;;2.43;0.83;;;;;;;10.95;83.08;98049.78;5025857;28;20662;-73
2023/03/10 02:00:42;;;;;;;1.43;0.80;;;;;;;10.94;83.00;98033.00;5025852;28;20335;-73
2023/03/10 02:03:33;;;;;;;2.13;0.80;;;;;;;10.91;83.32;98048.13;5024636;28;20204;-74
2023/03/10 02:06:03;;;;;;;1.77;0.80;;;;;;;10.91;83.25;98042.81;5025719;28;20233;-73
2023/03/10 02:08:34;;;;;;;1.17;1.00;;;;;;;10.87;83.50;98044.66;5026862;28;20682;-73
2023/03/10 02:11:01;;;;;;;2.30;1.07;;;;;;;10.86;83.92;98031.47;5027505;28;20227;-74
2023/03/10 02:13:27;;;;;;;1.90;0.90;;;;;;;10.79;84.06;98029.88;5026010;28;20234;-74
2023/03/10 02:15:53;;;;;;;1.43;0.90;;;;;;;10.79;84.60;98025.44;5026090;28;20663;-74
2023/03/10 02:18:21;;;;;;;2.23;0.83;;;;;;;10.73;84.49;98022.94;5025248;28;20282;-74
2023/03/10 02:21:02;;;;;;;0.90;0.70;;;;;;;10.72;84.62;98023.88;5024900;28;20221;-74
2023/03/10 02:23:47;;;;;;;2.33;0.83;;;;;;;10.67;85.18;98018.69;5026138;28;20210;-74
2023/03/10 02:26:48;;;;;;;1.00;0.90;;;;;;;10.61;85.31;98021.50;5025727;28;20674;-73
2023/03/10 02:29:25;;;;;;;1.53;1.00;;;;;;;10.57;85.70;98021.59;5023109;28;20210;-74
2023/03/10 02:31:53;;;;;;;1.63;0.97;;;;;;;10.60;85.64;98026.81;5026505;28;20210;-74
2023/03/10 02:34:19;;;;;;;1.20;0.90;;;;;;;10.57;85.75;98022.47;5040420;28;20192;-74
2023/03/10 02:36:46;;;;;;;2.40;0.90;;;;;;;10.58;85.41;98021.56;5027406;28;20210;-74
2023/03/10 02:39:12;;;;;;;0.80;0.63;;;;;;;10.60;85.45;98010.94;5022749;28;20254;-74
2023/03/10 02:41:39;;;;;;;1.23;0.80;;;;;;;10.62;85.25;98017.06;5026560;28;20231;-74
2023/03/10 02:44:09;;;;;;;1.57;1.00;;;;;;;10.60;85.34;98005.66;5025937;28;20624;-74
2023/03/10 02:46:35;;;;;;;1.87;0.90;;;;;;;10.58;85.56;98010.97;5022162;28;20210;-74
2023/03/10 02:49:03;;;;;;;1.03;0.77;;;;;;;10.57;85.72;98001.31;5023404;28;20198;-74
2023/03/10 02:51:33;;;;;;;2.30;1.00;;;;;;;10.59;85.58;98009.22;5022218;28;20241;-74
2023/03/10 02:54:00;;;;;;;1.23;0.90;;;;;;;10.63;87.00;98017.03;5026282;28;20200;-74
2023/03/10 02:56:27;;;;;;;2.13;1.10;;;;;;;10.51;90.05;98009.41;5023490;28;20379;-74
2023/03/10 02:58:54;;;;;;;1.67;1.00;;;;;;;10.27;91.73;98004.69;5017643;28;20254;-74
2023/03/10 03:01:20;;;;;;;1.73;1.10;;;;;;;10.11;93.75;98009.44;5020781;28;20226;-74
2023/03/10 03:03:47;;;;;;;1.33;1.03;;;;;;;10.04;95.27;98006.06;5026939;28;20201;-74
2023/03/10 03:06:13;;;;;;;1.67;1.00;;;;;;;9.93;95.61;98009.84;5021192;28;20585;-74
2023/03/10 03:08:40;;;;;;;1.83;0.93;;;;;;;9.89;96.40;98000.25;5024411;28;20211;-74
2023/03/10 03:11:06;;;;;;;1.10;1.00;;;;;;;9.89;96.29;97997.59;5023888;28;20279;-74
2023/03/10 03:13:33;;;;;;;2.63;1.20;;;;;;;9.87;96.40;97991.47;5025363;28;20221;-73
2023/03/10 03:15:59;;;;;;;3.00;1.10;;;;;;;9.81;96.21;97991.63;5023575;28;20540;-74
2023/03/10 03:18:26;;;;;;;2.77;1.10;;;;;;;9.90;96.46;97999.34;5024365;28;20259;-74
2023/03/10 03:20:52;;;;;;;1.77;1.07;;;;;;;9.93;95.95;97999.28;5026258;28;20284;-73
2023/03/10 03:23:19;;;;;;;2.40;0.93;;;;;;;9.92;96.56;97998.41;5022995;28;20739;-73
2023/03/10 03:25:45;;;;;;;1.93;1.20;;;;;;;9.96;96.44;97999.19;5025376;28;20222;-73
2023/03/10 03:28:12;;;;;;;3.17;1.30;;;;;;;9.90;96.28;97976.41;5023159;28;20232;-73
2023/03/10 03:30:39;;;;;;;2.80;1.20;;;;;;;9.87;97.15;97989.72;5026464;28;20226;-73
2023/03/10 03:33:07;;;;;;;2.00;1.10;;;;;;;9.80;97.49;97984.59;5023456;28;20214;-73
2023/03/10 03:35:36;;;;;;;5.17;1.20;;;;;;;9.69;98.41;97991.00;5025080;28;20679;-74
2023/03/10 03:38:03;;;;;;;1.20;1.00;;;;;;;9.62;98.42;97992.03;5025777;28;20209;-74
2023/03/10 03:40:35;;;;;;;3.03;1.20;;;;;;;9.61;98.77;97985.00;5024519;28;20644;-74
2023/03/10 03:43:03;;;;;;;2.83;1.20;;;;;;;9.64;98.59;97997.28;5024766;28;20206;-73
2023/03/10 03:45:33;;;;;;;2.23;1.10;;;;;;;9.68;97.76;97994.53;5025173;28;20233;-73
2023/03/10 03:47:59;;;;;;;1.43;1.17;;;;;;;9.74;96.71;98002.34;5025746;28;20226;-73
2023/03/10 03:50:26;;;;;;;2.23;1.33;;;;;;;9.73;97.60;98005.88;5022856;28;20258;-73
2023/03/10 03:52:52;;;;;;;2.73;1.07;;;;;;;9.78;97.42;98005.78;5023667;28;20264;-73
2023/03/10 03:55:19;;;;;;;3.40;1.40;;;;;;;9.78;97.37;98010.19;5024677;28;20200;-73
2023/03/10 03:57:46;;;;;;;2.73;1.30;;;;;;;9.74;96.92;98007.63;5024078;28;20661;-73
2023/03/10 04:00:22;;;;;;;1.53;1.00;;;;;;;9.71;96.93;98005.03;5024785;28;20252;-73
2023/03/10 04:02:49;;;;;;;1.97;0.90;;;;;;;9.77;96.84;98011.97;5022724;28;20284;-73
2023/03/10 04:05:15;;;;;;;2.60;1.13;;;;;;;9.78;96.87;97997.84;5024906;28;20205;-73
2023/03/10 04:07:42;;;;;;;2.80;1.20;;;;;;;9.72;96.56;97988.28;5024432;28;20199;-73
2023/03/10 04:10:12;;;;;;;1.97;1.00;;;;;;;9.77;94.85;97987.31;5021222;28;20222;-73
2023/03/10 04:12:38;;;;;;;2.20;1.13;;;;;;;9.72;94.22;97976.84;5022579;28;20561;-73
2023/03/10 04:15:07;;;;;;;4.67;1.10;;;;;;;9.74;94.22;97990.88;5024334;28;20300;-73
2023/03/10 04:17:34;;;;;;;1.97;1.37;;;;;;;9.76;93.39;97977.66;5022146;28;20223;-73
2023/03/10 04:20:01;;;;;;;1.67;1.30;;;;;;;9.86;93.09;97984.44;5025013;28;20237;-73
2023/03/10 04:22:35;;;;;;;3.13;1.20;;;;;;;9.87;92.55;97981.78;5023925;28;20241;-73
2023/03/10 04:25:02;;;;;;;2.30;1.30;;;;;;;9.91;92.21;97979.94;5024248;28;20194;-73
2023/03/10 04:27:30;;;;;;;2.97;1.23;;;;;;;9.88;92.35;97986.16;5023660;28;20235;-73
2023/03/10 04:29:56;;;;;;;1.80;1.13;;;;;;;9.90;92.08;97975.53;5023960;28;20274;-73
2023/03/10 04:32:23;;;;;;;3.63;1.20;;;;;;;9.96;91.77;97970.97;5021975;28;20198;-73
2023/03/10 04:34:49;;;;;;;3.13;1.10;;;;;;;9.98;91.98;97966.53;5024768;28;20245;-73
2023/03/10 04:37:16;;;;;;;2.03;1.23;;;;;;;9.96;91.75;97967.47;5023573;28;20200;-74
2023/03/10 04:39:42;;;;;;;2.03;1.20;;;;;;;9.94;91.77;97953.41;5023776;28;20214;-73
2023/03/10 04:42:09;;;;;;;3.53;1.20;;;;;;;9.92;91.67;97950.81;5023007;28;20250;-73
2023/03/10 04:44:35;;;;;;;2.37;1.13;;;;;;;9.98;91.41;97953.31;5021576;28;20211;-73
2023/03/10 04:47:02;;;;;;;1.50;0.97;;;;;;;10.00;91.23;97950.63;5024685;28;20203;-73
2023/03/10 04:49:29;;;;;;;2.57;1.30;;;;;;;9.97;91.50;97942.78;5021884;28;20897;-73
2023/03/10 04:51:55;;;;;;;5.23;1.20;;;;;;;9.92;91.57;97945.53;5023302;28;20633;-73
2023/03/10 04:54:21;;;;;;;3.80;1.20;;;;;;;9.97;91.74;97942.78;5025210;28;20252;-73
2023/03/10 04:56:48;;;;;;;1.87;1.10;;;;;;;9.95;90.96;97939.28;5026775;28;20560;-73
2023/03/10 04:59:14;;;;;;;2.67;1.40;;;;;;;9.98;90.85;97940.09;5023578;28;20579;-73
2023/03/10 05:01:41;;;;;;;2.43;1.27;;;;;;;9.98;91.01;97932.16;5019961;28;21155;-73
2023/03/10 05:04:08;;;;;;;2.33;1.10;;;;;;;10.00;90.67;97934.75;5023715;28;20242;-73
2023/03/10 05:06:35;;;;;;;4.73;1.50;;;;;;;9.99;90.42;97920.66;5023909;28;20199;-73
2023/03/10 05:09:03;;;;;;;2.40;1.10;;;;;;;10.04;91.01;97910.88;5021384;28;20772;-73
2023/03/10 05:11:30;;;;;;;3.97;1.47;;;;;;;9.98;90.79;97911.00;5021078;28;20214;-73
2023/03/10 05:13:57;;;;;;;5.00;1.50;;;;;;;9.93;91.46;97906.75;5023233;28;20192;-73
2023/03/10 05:16:23;;;;;;;3.57;1.30;;;;;;;9.92;91.20;97905.88;5024369;28;20241;-73
2023/03/10 05:18:50;;;;;;;6.33;1.40;;;;;;;9.94;91.08;97908.47;5022831;28;20202;-73
2023/03/10 05:21:16;;;;;;;4.23;1.60;;;;;;;9.94;91.74;97908.47;5022756;28;20295;-73
2023/03/10 05:23:43;;;;;;;3.83;1.27;;;;;;;9.89;92.47;97913.00;5024657;28;20692;-73
2023/03/10 05:26:10;;;;;;;6.63;1.80;;;;;;;9.86;92.67;97905.16;5026259;28;20202;-73
2023/03/10 05:28:37;;;;;;;2.73;1.30;;;;;;;9.77;93.37;97908.88;5025967;28;20357;-73
2023/03/10 05:31:12;;;;;;;4.33;1.57;;;;;;;9.84;94.22;97902.53;5022389;28;20250;-73
2023/03/10 05:33:40;;;;;;;3.40;1.30;;;;;;;9.83;94.67;97905.22;5022858;28;20667;-73
2023/03/10 05:36:08;;;;;;;3.33;1.50;;;;;;;9.76;95.42;97901.00;5024691;28;20252;-72
2023/03/10 05:38:35;;;;;;;4.40;1.70;;;;;;;9.72;95.75;97905.47;5027429;28;20225;-73
2023/03/10 05:41:05;;;;;;;3.27;1.67;;;;;;;9.57;96.02;97898.75;5026741;28;20684;-73
2023/03/10 05:43:32;;;;;;;4.03;1.67;;;;;;;9.45;96.74;97901.69;5025397;28;20209;-73
2023/03/10 05:45:59;;;;;;;6.73;1.80;;;;;;;9.40;97.40;97901.78;5025494;28;20202;-73
2023/03/10 05:48:25;;;;;;;5.10;1.57;;;;;;;9.35;98.34;97889.59;5026864;28;20207;-73
2023/03/10 05:50:59;;;;;;;3.20;1.67;;;;;;;9.32;98.50;97901.09;5024391;28;20286;-73
2023/03/10 05:53:27;;;;;;;2.17;1.50;;;;;;;9.33;99.17;97894.91;5023226;28;21041;-73
2023/03/10 05:55:54;;;;;;;7.60;1.60;;;;;;;9.30;99.49;97894.97;5026698;28;20205;-73
2023/03/10 05:58:21;;;;;;;3.37;1.43;;;;;;;9.36;98.96;97883.41;5025529;28;20301;-73
2023/03/10 06:00:48;;;;;;;7.43;2.17;;;;;;;9.38;97.36;97878.94;5025697;28;20276;-73
2023/03/10 06:03:15;;;;;;;6.63;1.53;;;;;;;9.40;96.73;97885.06;5024686;28;20245;-74
2023/03/10 06:05:42;;;;;;;6.53;2.37;;;;;;;9.42;96.02;97886.78;5026382;28;20208;-73
2023/03/10 06:08:08;;;;;;;8.60;1.97;;;;;;;9.48;95.88;97901.59;5024823;28;20201;-73
2023/03/10 06:10:35;;;;;;;3.93;1.50;;;;;;;9.50;95.69;97901.56;5025502;28;20218;-73
2023/03/10 06:13:01;;;;;;;5.13;1.83;;;;;;;9.58;94.09;97897.84;5027734;28;20258;-73
2023/03/10 06:15:29;;;;;;;4.90;1.40;;;;;;;9.71;92.94;97894.03;5023673;28;20204;-73
2023/03/10 06:17:55;;;;;;;6.90;1.50;;;;;;;9.79;92.43;97895.63;5021540;28;20200;-73
2023/03/10 06:20:22;;;;;;;3.50;1.30;;;;;;;9.81;92.07;97899.97;5022392;28;20594;-73
2023/03/10 06:22:51;;;;;;;7.33;1.90;;;;;;;9.91;91.51;97903.25;5026855;28;20208;-73
2023/03/10 06:25:18;;;;;;;5.37;1.43;;;;;;;10.00;90.52;97898.63;5015548;28;20210;-73
2023/03/10 06:27:45;;;;;;;4.10;1.50;;;;;;;10.11;90.26;97903.66;5019104;28;20202;-75
2023/03/10 06:30:12;;;;;;;5.20;1.63;;;;;;;10.17;90.09;97903.50;5021097;28;20218;-75
2023/03/10 06:32:40;;;;;;;9.63;2.27;;;;;;;10.19;89.91;97893.75;5023882;28;20297;-72
2023/03/10 06:35:11;;;;;;;2.50;1.30;;;;;;;10.19;89.87;97900.81;5023753;28;20209;-73
2023/03/10 06:37:37;;;;;;;4.77;1.57;;;;;;;10.20;90.04;97908.75;5024798;28;20693;-75
2023/03/10 06:40:06;;;;;;;5.27;1.40;;;;;;;10.19;89.79;97906.97;5025516;28;20218;-75
2023/03/10 06:42:33;;;;;;;7.77;1.73;;;;;;;10.18;89.80;97907.03;5012787;28;20285;-72
2023/03/10 06:44:59;;;;;;;2.00;1.47;;;;;;;10.21;90.32;97909.63;5020801;28;20205;-73
2023/03/10 06:47:26;;;;;;;4.37;1.80;;;;;;;10.23;89.94;97911.31;5021132;28;20238;-72
2023/03/10 06:49:53;;;;;;;5.93;1.67;;;;;;;10.23;89.60;97907.81;5023356;28;20216;-71
2023/03/10 06:52:20;;;;;;;6.90;1.70;;;;;;;10.27;89.58;97904.16;5020352;28;20658;-71
2023/03/10 06:54:46;;;;;;;4.57;1.53;;;;;;;10.29;88.67;97905.88;5024735;28;20199;-72
2023/03/10 06:57:13;;;;;;;5.07;1.63;;;;;;;10.30;88.23;97902.31;4996492;28;20213;-72
2023/03/10 06:59:39;;;;;;;3.33;1.43;;;;;;;10.32;87.04;97899.63;5017807;28;20207;-70
2023/03/10 07:02:06;;;;;;;2.47;1.40;;;;;;;10.35;85.77;97900.41;5018657;28;20222;-71
2023/03/10 07:04:32;;;;;;;2.00;1.00;;;;;;;10.40;85.08;97892.34;5023225;28;20204;-71
2023/03/10 07:06:59;;;;;;;6.03;1.23;;;;;;;10.36;84.60;97878.34;5025026;28;20202;-72
2023/03/10 07:09:25;;;;;;;4.27;0.93;;;;;;;10.43;83.86;97880.84;5023698;28;20211;-72
2023/03/10 07:11:51;;;;;;;1.60;1.10;;;;;;;10.46;83.24;97884.28;5025775;28;20276;-71
2023/03/10 07:14:18;;;;;;;5.67;1.20;;;;;;;10.45;83.61;97871.97;5019105;28;20204;-71
2023/03/10 07:16:45;;;;;;;1.67;0.97;;;;;;;10.47;81.81;97875.44;5021035;28;20247;-72
2023/03/10 07:19:12;;;;;;;5.47;1.43;;;;;;;10.51;82.08;97873.56;5023295;28;20210;-72
2023/03/10 07:21:38;;;;;;;3.70;1.10;;;;;;;10.48;82.75;97882.47;5019975;28;20223;-71
2023/03/10 07:24:05;;;;;;;4.00;1.07;;;;;;;10.58;81.62;97891.03;5021828;28;20215;-71
2023/03/10 07:26:31;;;;;;;4.30;0.90;;;;;;;10.70;81.16;97882.75;5023994;28;20206;-72
2023/03/10 07:28:58;;;;;;;4.57;1.10;;;;;;;10.83;81.27;97894.75;5023295;28;20286;-71
2023/03/10 07:31:24;;;;;;;4.10;1.60;;;;;;;10.86;80.54;97894.66;5017921;28;20342;-72
2023/03/10 07:33:51;;;;;;;2.70;1.20;;;;;;;10.97;80.16;97899.66;5015670;28;20200;-71
2023/03/10 07:36:18;;;;;;;4.60;0.93;;;;;;;11.01;80.41;97890.69;5024278;28;20207;-73
2023/03/10 07:38:45;;;;;;;2.63;1.00;;;;;;;11.11;78.71;97899.25;5022700;28;20204;-72
2023/03/10 07:41:17;;;;;;;4.17;1.10;;;;;;;11.17;79.46;97889.34;5019651;28;20226;-72
2023/03/10 07:43:43;;;;;;;3.53;1.30;;;;;;;11.39;78.37;97891.38;5023537;28;20192;-73
2023/03/10 07:46:13;;;;;;;2.93;1.10;;;;;;;11.41;77.86;97893.06;5022012;28;20204;-73
2023/03/10 07:48:40;;;;;;;5.50;1.50;;;;;;;11.36;78.15;97881.72;5023275;28;20212;-72
2023/03/10 07:51:07;;;;;;;4.63;1.10;;;;;;;11.38;78.12;97868.44;5024365;28;20215;-71
2023/03/10 07:53:33;;;;;;;3.40;0.90;;;;;;;11.40;77.82;97879.84;5025747;28;20205;-70
2023/03/10 07:56:07;;;;;;;4.90;1.00;;;;;;;11.50;77.82;97884.81;5029318;28;20273;-71
2023/03/10 07:58:34;;;;;;;4.20;1.17;;;;;;;11.48;77.53;97891.94;5025583;28;20266;-72
2023/03/10 08:01:01;;;;;;;7.07;1.53;;;;;;;11.52;77.71;97893.59;5020244;28;20221;-73
2023/03/10 08:03:28;;;;;;;4.60;1.50;;;;;;;11.49;77.43;97893.69;5025339;28;20254;-74
2023/03/10 08:05:55;;;;;;;2.57;0.90;;;;;;;11.42;76.60;97902.72;5026603;28;20697;-73
2023/03/10 08:08:22;;;;;;;2.20;0.87;;;;;;;11.22;76.00;97907.78;5024782;28;20202;-72
2023/03/10 08:10:49;;;;;;;5.17;1.20;;;;;;;11.26;76.85;97912.94;5027542;28;20320;-73
2023/03/10 08:13:15;;;;;;;3.70;1.10;;;;;;;11.10;76.38;97916.03;5024529;28;20210;-72
2023/03/10 08:15:42;;;;;;;2.63;1.00;;;;;;;11.07;75.71;97924.09;5023265;28;20202;-75
2023/03/10 08:18:08;;;;;;;3.73;0.90;;;;;;;11.02;75.43;97918.06;5025986;28;20260;-72
2023/03/10 08:20:35;;;;;;;1.93;0.83;;;;;;;11.05;75.20;97931.22;5020147;28;20221;-73
2023/03/10 08:23:02;;;;;;;1.17;0.77;;;;;;;11.11;74.91;97916.00;5027701;28;20249;-72
2023/03/10 08:25:29;;;;;;;1.90;0.70;;;;;;;11.24;74.19;97920.06;5027376;28;20251;-74
2023/03/10 08:27:56;;;;;;;3.77;1.00;;;;;;;11.24;72.29;97920.06;5025518;28;20672;-72
2023/03/10 08:30:22;;;;;;;1.27;0.70;;;;;;;11.08;73.33;97923.16;5026336;28;20216;-72
2023/03/10 08:32:49;;;;;;;1.53;0.53;;;;;;;11.11;72.83;97926.59;5027233;28;20268;-72
2023/03/10 08:35:15;;;;;;;3.23;0.60;;;;;;;11.16;73.44;97929.97;5028825;28;20211;-72
2023/03/10 08:37:42;;;;;;;2.17;0.70;;;;;;;11.27;72.45;97937.66;5023057;28;20203;-71
2023/03/10 08:40:12;;;;;;;3.27;0.90;;;;;;;11.33;73.04;97936.59;5023783;28;20264;-74
2023/03/10 08:42:39;;;;;;;1.73;0.60;;;;;;;11.38;72.67;97929.38;5022987;28;20280;-72
2023/03/10 08:45:06;;;;;;;1.87;0.70;;;;;;;11.65;71.42;97944.47;5026941;28;20203;-72
2023/03/10 08:47:34;;;;;;;1.83;0.80;;;;;;;11.96;69.45;97940.88;5023056;28;20627;-72
2023/03/10 08:50:01;;;;;;;1.60;0.70;;;;;;;12.20;69.48;97943.63;5027072;28;20226;-73
2023/03/10 08:52:27;;;;;;;2.23;0.70;;;;;;;11.85;68.86;97944.75;5026894;28;20195;-72
2023/03/10 08:54:53;;;;;;;3.40;0.83;;;;;;;11.69;70.20;97939.94;5024470;28;20205;-71
2023/03/10 08:57:20;;;;;;;2.03;0.80;;;;;;;11.66;70.48;97942.69;5028436;28;20263;-71
2023/03/10 08:59:46;;;;;;;1.53;0.80;;;;;;;11.84;71.36;97939.50;5037106;28;20250;-71
2023/03/10 09:02:14;;;;;;;1.90;0.93;;;;;;;11.89;71.04;97942.88;5032746;28;20748;-71
2023/03/10 09:04:41;;;;;;;1.13;0.73;;;;;;;11.87;70.23;97939.41;5029260;28;20629;-73
2023/03/10 09:07:07;;;;;;;2.57;0.80;;;;;;;11.74;69.84;97946.84;5028841;28;20284;-71
2023/03/10 09:09:34;;;;;;;2.63;1.00;;;;;;;11.91;69.99;97955.16;5028223;28;20258;-74
2023/03/10 09:12:03;;;;;;;1.40;1.00;;;;;;;12.01;69.48;97957.53;5031173;28;20234;-72
2023/03/10 09:14:30;;;;;;;2.00;1.00;;;;;;;11.63;69.77;97956.03;5027157;28;20205;-74
2023/03/10 09:16:56;;;;;;;24.33;4.17;;;;;;;11.66;70.36;97950.63;5030808;28;20199;-73
2023/03/10 09:19:23;;;;;;;29.53;3.50;;;;;;;11.99;69.86;97957.56;5026751;28;20204;-72
2023/03/10 09:21:49;;;;;;;4.87;1.70;;;;;;;12.38;68.62;97959.84;5021649;28;20221;-72
2023/03/10 09:24:16;;;;;;;2.47;1.10;;;;;;;12.46;67.62;97960.50;5029094;28;20617;-72
2023/03/10 09:26:43;;;;;;;4.93;1.50;;;;;;;12.59;67.39;97953.84;5031302;28;20300;-73
2023/03/10 09:29:10;;;;;;;4.63;1.43;;;;;;;12.85;66.49;97955.63;5027197;28;20211;-71
2023/03/10 09:31:38;;;;;;;4.40;1.40;;;;;;;13.30;65.81;97955.81;5026173;28;20652;-73
2023/03/10 09:34:06;;;;;;;2.87;1.30;;;;;;;14.07;64.12;97951.97;5032697;28;20210;-74
2023/03/10 09:36:34;;;;;;;2.23;1.23;;;;;;;14.48;61.01;97948.56;5029461;28;20202;-71
2023/03/10 09:39:01;;;;;;;4.63;1.10;;;;;;;15.12;59.14;97948.47;5023346;28;20207;-75
2023/03/10 09:41:39;;;;;;;3.83;1.00;;;;;;;14.81;58.62;97955.16;5024101;28;20223;-79
2023/03/10 09:44:42;;;;;;;4.13;1.27;;;;;;;14.65;59.36;97949.59;5030616;28;21187;-80
2023/03/10 09:47:08;;;;;;;1.40;0.87;;;;;;;14.75;58.66;97947.41;5022802;28;20672;-80
2023/03/10 09:49:46;;;;;;;3.23;1.17;;;;;;;14.74;58.61;97938.53;5027269;28;20195;-80
2023/03/10 09:52:26;;;;;;;2.90;1.00;;;;;;;14.45;59.17;97951.38;5019215;28;21212;-81
2023/03/10 09:54:58;;;;;;;2.10;0.97;;;;;;;14.01;60.68;97944.22;5018296;28;20203;-77
2023/03/10 09:57:26;;;;;;;3.10;0.90;;;;;;;13.57;62.14;97947.72;5015665;28;21782;-78
2023/03/10 09:59:57;;;;;;;3.20;1.00;;;;;;;13.23;62.50;97954.31;5018642;28;20657;-78
2023/03/10 10:02:31;;;;;;;3.30;0.80;;;;;;;13.62;61.72;97951.09;5016261;28;20215;-73
2023/03/10 10:05:02;;;;;;;3.63;1.03;;;;;;;13.63;61.52;97955.47;5022500;28;20253;-74
2023/03/10 10:07:41;;;;;;;2.17;1.07;;;;;;;13.25;62.86;97959.56;5011480;28;20205;-76
2023/03/10 10:10:18;;;;;;;1.67;0.80;;;;;;;13.03;64.04;97949.66;5018193;28;20423;-75
2023/03/10 10:12:48;;;;;;;2.90;1.00;;;;;;;13.01;63.99;97953.28;5018299;28;20720;-73
2023/03/10 10:15:20;;;;;;;2.47;1.10;;;;;;;13.27;63.57;97955.06;5018845;28;20241;-73
2023/03/10 10:18:09;;;;;;;2.10;0.93;;;;;;;13.36;63.04;97968.00;5019456;28;20223;-75
2023/03/10 10:20:52;;;;;;;5.83;1.40;;;;;;;13.58;63.28;97960.06;5018795;28;20796;-74
2023/03/10 10:23:27;;;;;;;1.40;1.00;;;;;;;13.96;61.69;97958.59;5019579;28;20222;-76
2023/03/10 10:25:53;;;;;;;2.63;1.10;;;;;;;14.56;61.71;97957.09;5029327;28;20195;-78
2023/03/10 10:28:27;;;;;;;3.17;1.00;;;;;;;14.97;58.06;97953.56;5029203;28;20196;-81
2023/03/10 10:31:09;;;;;;;1.80;0.80;;;;;;;14.98;57.86;97952.63;5029785;28;20211;-82
2023/03/10 10:34:00;;;;;;;2.50;0.90;;;;;;;14.93;57.72;97959.94;5027912;28;20603;-82
2023/03/10 10:36:30;;;;;;;1.60;1.00;;;;;;;13.95;59.82;97952.41;5026018;28;20549;-82
2023/03/10 10:38:57;;;;;;;1.77;0.97;;;;;;;14.11;60.00;97945.59;5026978;28;20572;-81
2023/03/10 10:41:33;;;;;;;3.97;1.30;;;;;;;14.34;60.01;97952.63;5025201;28;20594;-80
2023/03/10 10:44:07;;;;;;;1.97;1.00;;;;;;;14.03;60.76;97953.00;5028952;28;20215;-82
2023/03/10 10:46:33;;;;;;;2.47;1.07;;;;;;;14.44;60.40;97961.16;5025810;28;20408;-80
2023/03/10 10:49:18;;;;;;;2.83;1.27;;;;;;;14.85;59.81;97945.22;5033948;28;20596;-79
2023/03/10 10:52:17;;;;;;;3.07;1.13;;;;;;;14.91;58.89;97942.28;5030987;28;20223;-84
2023/03/10 10:54:53;;;;;;;2.43;1.30;;;;;;;14.80;58.32;97949.88;5021462;28;20201;-82
2023/03/10 10:57:22;;;;;;;1.93;1.10;;;;;;;14.63;59.07;97958.59;5022757;28;20295;-82
2023/03/10 10:59:49;;;;;;;3.50;1.20;;;;;;;14.62;58.54;97956.84;5027992;28;20635;-80
2023/03/10 11:02:32;;;;;;;2.73;1.37;;;;;;;14.27;59.73;97952.94;5026920;28;20243;-81
2023/03/10 11:05:10;;;;;;;2.10;0.97;;;;;;;14.33;59.83;97948.22;5023435;28;20462;-82
2023/03/10 11:07:37;;;;;;;2.73;1.00;;;;;;;14.16;60.04;97945.41;5024523;28;20210;-80
2023/03/10 11:10:18;;;;;;;1.80;0.80;;;;;;;14.38;60.36;97948.91;5029416;28;20222;-82
2023/03/10 11:13:04;;;;;;;2.43;1.10;;;;;;;14.63;59.88;97946.13;5022896;28;20203;-80
2023/03/10 11:15:37;;;;;;;1.70;1.17;;;;;;;14.71;59.60;97945.81;5029716;28;20199;-84
2023/03/10 11:18:17;;;;;;;1.43;0.80;;;;;;;15.07;58.24;97945.16;5024250;28;20338;-80
2023/03/10 11:21:02;;;;;;;3.70;1.10;;;;;;;15.47;56.90;97939.75;5028384;28;20219;-80
2023/03/10 11:23:47;;;;;;;1.67;1.10;;;;;;;15.53;56.49;97934.16;5027502;28;20219;-76
2023/03/10 11:26:41;;;;;;;1.80;1.10;;;;;;;15.65;55.81;97941.63;5018717;28;20257;-73
2023/03/10 11:29:33;;;;;;;1.10;0.70;;;;;;;15.80;56.01;97953.41;5024019;28;20249;-73
2023/03/10 11:32:23;;;;;;;2.50;0.63;;;;;;;15.94;54.86;97932.25;5028370;28;20202;-72
2023/03/10 11:34:54;;;;;;;0.40;0.40;;;;;;;16.37;54.42;97934.63;5032539;28;20210;-73
2023/03/10 11:37:38;;;;;;;1.10;0.60;;;;;;;16.46;53.50;97936.88;5022226;28;20266;-74
2023/03/10 11:40:26;;;;;;;0.70;0.53;;;;;;;16.33;54.52;97938.41;5029556;28;20219;-72
2023/03/10 11:43:15;;;;;;;0.97;0.70;;;;;;;16.23;54.28;97938.88;5021624;28;20289;-73
2023/03/10 11:45:52;;;;;;;1.37;1.20;;;;;;;16.27;55.38;97932.44;5018630;28;20195;-73